sensor_id;sensor_type;location;lat;lon;timestamp;P1;durP1;ratioP1;P2;durP2;ratioP2
9007;SDS011;62813;51.424;6.762;2022-08-30T00:02:08;4.93;;;3.70;;
9007;SDS011;62813;51.424;6.762;2022-08-30T00:04:36;6.63;;;3.80;;
9007;SDS011;62813;51.424;6.762;2022-08-30T00:07:02;8.70;;;3.53;;
9007;SDS011;62813;51.424;6.762;2022-08-30T00:09:30;6.77;;;3.53;;
9007;SDS011;62813;51.424;6.762;2022-08-30T00:11:57;6.63;;;3.40;;
9007;SDS011;62813;51.424;6.762;2022-08-30T00:14:24;7.93;;;3.70;;
9007;SDS011;62813;51.424;6.762;2022-08-30T00:16:52;6.10;;;3.40;;
9007;SDS011;62813;51.424;6.762;2022-08-30T00:19:19;7.17;;;3.30;;
9007;SDS011;62813;51.424;6.762;2022-08-30T00:21:46;6.93;;;3.20;;
9007;SDS011;62813;51.424;6.762;2022-08-30T00:24:12;5.43;;;3.53;;
9007;SDS011;62813;51.424;6.762;2022-08-30T00:26:39;6.50;;;3.70;;
9007;SDS011;62813;51.424;6.762;2022-08-30T00:29:06;4.33;;;3.67;;
9007;SDS011;62813;51.424;6.762;2022-08-30T00:31:32;4.80;;;3.40;;
9007;SDS011;62813;51.424;6.762;2022-08-30T00:33:59;6.70;;;3.47;;
9007;SDS011;62813;51.424;6.762;2022-08-30T00:36:26;8.10;;;3.90;;
9007;SDS011;62813;51.424;6.762;2022-08-30T00:38:52;5.57;;;3.50;;
9007;SDS011;62813;51.424;6.762;2022-08-30T00:41:19;7.53;;;3.77;;
9007;SDS011;62813;51.424;6.762;2022-08-30T00:43:47;5.40;;;3.40;;
9007;SDS011;62813;51.424;6.762;2022-08-30T00:46:13;8.60;;;4.13;;
9007;SDS011;62813;51.424;6.762;2022-08-30T00:48:41;11.43;;;3.63;;
9007;SDS011;62813;51.424;6.762;2022-08-30T00:51:12;7.23;;;3.27;;
9007;SDS011;62813;51.424;6.762;2022-08-30T00:53:42;4.90;;;3.40;;
9007;SDS011;62813;51.424;6.762;2022-08-30T00:56:13;4.40;;;3.13;;
9007;SDS011;62813;51.424;6.762;2022-08-30T00:58:44;5.67;;;3.57;;
9007;SDS011;62813;51.424;6.762;2022-08-30T01:01:13;7.43;;;3.37;;
9007;SDS011;62813;51.424;6.762;2022-08-30T01:03:41;4.00;;;3.40;;
9007;SDS011;62813;51.424;6.762;2022-08-30T01:06:09;5.87;;;3.27;;
9007;SDS011;62813;51.424;6.762;2022-08-30T01:08:36;5.80;;;3.47;;
9007;SDS011;62813;51.424;6.762;2022-08-30T01:11:04;4.87;;;2.90;;
9007;SDS011;62813;51.424;6.762;2022-08-30T01:13:31;7.37;;;3.27;;
9007;SDS011;62813;51.424;6.762;2022-08-30T01:16:00;6.40;;;3.33;;
9007;SDS011;62813;51.424;6.762;2022-08-30T01:18:28;8.07;;;3.33;;
9007;SDS011;62813;51.424;6.762;2022-08-30T01:23:33;8.10;;;3.33;;
9007;SDS011;62813;51.424;6.762;2022-08-30T01:26:03;6.80;;;3.30;;
9007;SDS011;62813;51.424;6.762;2022-08-30T01:28:31;5.00;;;3.10;;
9007;SDS011;62813;51.424;6.762;2022-08-30T01:30:58;4.83;;;3.30;;
9007;SDS011;62813;51.424;6.762;2022-08-30T01:33:25;7.93;;;3.27;;
9007;SDS011;62813;51.424;6.762;2022-08-30T01:35:55;5.47;;;3.20;;
9007;SDS011;62813;51.424;6.762;2022-08-30T01:38:31;5.13;;;3.10;;
9007;SDS011;62813;51.424;6.762;2022-08-30T01:41:15;8.07;;;3.27;;
9007;SDS011;62813;51.424;6.762;2022-08-30T01:43:48;5.40;;;3.00;;
9007;SDS011;62813;51.424;6.762;2022-08-30T01:46:16;6.47;;;3.33;;
9007;SDS011;62813;51.424;6.762;2022-08-30T01:48:45;7.13;;;3.20;;
9007;SDS011;62813;51.424;6.762;2022-08-30T01:51:19;7.90;;;3.20;;
9007;SDS011;62813;51.424;6.762;2022-08-30T01:53:47;7.97;;;3.23;;
9007;SDS011;62813;51.424;6.762;2022-08-30T01:56:14;4.30;;;3.20;;
9007;SDS011;62813;51.424;6.762;2022-08-30T01:58:41;4.60;;;3.40;;
9007;SDS011;62813;51.424;6.762;2022-08-30T02:01:08;4.03;;;2.93;;
9007;SDS011;62813;51.424;6.762;2022-08-30T02:03:38;10.07;;;3.57;;
9007;SDS011;62813;51.424;6.762;2022-08-30T02:06:08;8.13;;;3.20;;
9007;SDS011;62813;51.424;6.762;2022-08-30T02:08:38;4.97;;;3.20;;
9007;SDS011;62813;51.424;6.762;2022-08-30T02:11:05;5.47;;;3.07;;
9007;SDS011;62813;51.424;6.762;2022-08-30T02:13:32;5.33;;;3.30;;
9007;SDS011;62813;51.424;6.762;2022-08-30T02:15:59;6.90;;;3.07;;
9007;SDS011;62813;51.424;6.762;2022-08-30T02:18:26;5.10;;;3.20;;
9007;SDS011;62813;51.424;6.762;2022-08-30T02:20:55;6.43;;;3.37;;
9007;SDS011;62813;51.424;6.762;2022-08-30T02:23:22;5.90;;;3.50;;
9007;SDS011;62813;51.424;6.762;2022-08-30T02:25:49;5.87;;;3.40;;
9007;SDS011;62813;51.424;6.762;2022-08-30T02:28:15;6.00;;;3.53;;
9007;SDS011;62813;51.424;6.762;2022-08-30T02:30:45;5.17;;;3.50;;
9007;SDS011;62813;51.424;6.762;2022-08-30T02:33:13;7.10;;;3.80;;
9007;SDS011;62813;51.424;6.762;2022-08-30T02:35:41;7.17;;;4.00;;
9007;SDS011;62813;51.424;6.762;2022-08-30T02:38:07;5.23;;;3.60;;
9007;SDS011;62813;51.424;6.762;2022-08-30T02:40:34;6.53;;;3.93;;
9007;SDS011;62813;51.424;6.762;2022-08-30T02:43:04;9.00;;;4.03;;
9007;SDS011;62813;51.424;6.762;2022-08-30T02:45:31;6.27;;;3.87;;
9007;SDS011;62813;51.424;6.762;2022-08-30T02:47:58;5.73;;;3.70;;
9007;SDS011;62813;51.424;6.762;2022-08-30T02:50:24;6.83;;;4.23;;
9007;SDS011;62813;51.424;6.762;2022-08-30T02:52:51;6.33;;;4.07;;
9007;SDS011;62813;51.424;6.762;2022-08-30T02:55:20;7.03;;;4.23;;
9007;SDS011;62813;51.424;6.762;2022-08-30T02:57:47;7.77;;;4.60;;
9007;SDS011;62813;51.424;6.762;2022-08-30T03:00:15;4.57;;;4.10;;
9007;SDS011;62813;51.424;6.762;2022-08-30T03:02:45;4.60;;;3.97;;
9007;SDS011;62813;51.424;6.762;2022-08-30T03:05:12;5.20;;;4.67;;
9007;SDS011;62813;51.424;6.762;2022-08-30T03:07:40;8.40;;;5.10;;
9007;SDS011;62813;51.424;6.762;2022-08-30T03:10:08;10.37;;;4.30;;
9007;SDS011;62813;51.424;6.762;2022-08-30T03:12:36;6.97;;;4.20;;
9007;SDS011;62813;51.424;6.762;2022-08-30T03:15:07;10.67;;;4.60;;
9007;SDS011;62813;51.424;6.762;2022-08-30T03:17:38;4.77;;;3.87;;
9007;SDS011;62813;51.424;6.762;2022-08-30T03:20:05;5.27;;;3.87;;
9007;SDS011;62813;51.424;6.762;2022-08-30T03:22:33;5.17;;;3.97;;
9007;SDS011;62813;51.424;6.762;2022-08-30T03:25:00;6.37;;;4.17;;
9007;SDS011;62813;51.424;6.762;2022-08-30T03:27:27;8.83;;;4.07;;
9007;SDS011;62813;51.424;6.762;2022-08-30T03:29:55;7.47;;;3.80;;
9007;SDS011;62813;51.424;6.762;2022-08-30T03:32:22;8.17;;;3.90;;
9007;SDS011;62813;51.424;6.762;2022-08-30T03:34:49;11.03;;;3.60;;
9007;SDS011;62813;51.424;6.762;2022-08-30T03:37:16;4.93;;;3.67;;
9007;SDS011;62813;51.424;6.762;2022-08-30T03:39:43;7.30;;;3.67;;
9007;SDS011;62813;51.424;6.762;2022-08-30T03:42:11;3.90;;;3.50;;
9007;SDS011;62813;51.424;6.762;2022-08-30T03:44:38;3.97;;;3.27;;
9007;SDS011;62813;51.424;6.762;2022-08-30T03:47:05;5.43;;;3.87;;
9007;SDS011;62813;51.424;6.762;2022-08-30T03:49:33;5.37;;;4.00;;
9007;SDS011;62813;51.424;6.762;2022-08-30T03:52:00;6.73;;;3.70;;
9007;SDS011;62813;51.424;6.762;2022-08-30T03:54:27;4.07;;;3.67;;
9007;SDS011;62813;51.424;6.762;2022-08-30T03:56:54;6.57;;;4.27;;
9007;SDS011;62813;51.424;6.762;2022-08-30T03:59:21;5.87;;;3.80;;
9007;SDS011;62813;51.424;6.762;2022-08-30T04:01:48;3.77;;;3.47;;
9007;SDS011;62813;51.424;6.762;2022-08-30T04:04:15;5.47;;;3.80;;
9007;SDS011;62813;51.424;6.762;2022-08-30T04:06:46;6.57;;;4.13;;
9007;SDS011;62813;51.424;6.762;2022-08-30T04:09:13;4.57;;;3.33;;
9007;SDS011;62813;51.424;6.762;2022-08-30T04:11:40;5.27;;;3.20;;
9007;SDS011;62813;51.424;6.762;2022-08-30T04:14:06;4.37;;;3.70;;
9007;SDS011;62813;51.424;6.762;2022-08-30T04:16:33;4.37;;;3.60;;
9007;SDS011;62813;51.424;6.762;2022-08-30T04:19:00;6.60;;;3.53;;
9007;SDS011;62813;51.424;6.762;2022-08-30T04:21:26;4.10;;;3.30;;
9007;SDS011;62813;51.424;6.762;2022-08-30T04:23:53;7.10;;;3.70;;
9007;SDS011;62813;51.424;6.762;2022-08-30T04:26:20;5.27;;;3.57;;
9007;SDS011;62813;51.424;6.762;2022-08-30T04:28:47;8.70;;;3.93;;
9007;SDS011;62813;51.424;6.762;2022-08-30T04:31:14;5.73;;;3.63;;
9007;SDS011;62813;51.424;6.762;2022-08-30T04:33:42;5.00;;;4.33;;
9007;SDS011;62813;51.424;6.762;2022-08-30T04:36:09;6.23;;;4.50;;
9007;SDS011;62813;51.424;6.762;2022-08-30T04:38:37;8.93;;;5.17;;
9007;SDS011;62813;51.424;6.762;2022-08-30T04:41:11;8.60;;;6.50;;
9007;SDS011;62813;51.424;6.762;2022-08-30T04:43:42;10.53;;;6.67;;
9007;SDS011;62813;51.424;6.762;2022-08-30T04:46:10;8.07;;;6.40;;
9007;SDS011;62813;51.424;6.762;2022-08-30T04:48:39;7.93;;;6.50;;
9007;SDS011;62813;51.424;6.762;2022-08-30T04:51:07;8.03;;;6.60;;
9007;SDS011;62813;51.424;6.762;2022-08-30T04:53:35;7.40;;;6.07;;
9007;SDS011;62813;51.424;6.762;2022-08-30T04:56:09;10.07;;;6.57;;
9007;SDS011;62813;51.424;6.762;2022-08-30T04:58:38;8.40;;;5.97;;
9007;SDS011;62813;51.424;6.762;2022-08-30T05:01:10;6.50;;;5.50;;
9007;SDS011;62813;51.424;6.762;2022-08-30T05:03:39;6.97;;;5.30;;
9007;SDS011;62813;51.424;6.762;2022-08-30T05:06:06;7.70;;;4.93;;
9007;SDS011;62813;51.424;6.762;2022-08-30T05:08:33;5.47;;;4.67;;
9007;SDS011;62813;51.424;6.762;2022-08-30T05:11:02;7.87;;;4.53;;
9007;SDS011;62813;51.424;6.762;2022-08-30T05:13:30;7.43;;;4.93;;
9007;SDS011;62813;51.424;6.762;2022-08-30T05:16:03;5.00;;;4.20;;
9007;SDS011;62813;51.424;6.762;2022-08-30T05:18:31;5.23;;;4.13;;
9007;SDS011;62813;51.424;6.762;2022-08-30T05:21:09;5.40;;;3.93;;
9007;SDS011;62813;51.424;6.762;2022-08-30T05:23:38;7.43;;;4.50;;
9007;SDS011;62813;51.424;6.762;2022-08-30T05:26:09;5.80;;;3.70;;
9007;SDS011;62813;51.424;6.762;2022-08-30T05:28:38;4.80;;;4.30;;
9007;SDS011;62813;51.424;6.762;2022-08-30T05:31:18;8.80;;;4.80;;
9007;SDS011;62813;51.424;6.762;2022-08-30T05:33:47;6.70;;;4.43;;
9007;SDS011;62813;51.424;6.762;2022-08-30T05:36:15;7.80;;;4.83;;
9007;SDS011;62813;51.424;6.762;2022-08-30T05:38:44;6.97;;;4.70;;
9007;SDS011;62813;51.424;6.762;2022-08-30T05:41:11;7.67;;;4.47;;
9007;SDS011;62813;51.424;6.762;2022-08-30T05:43:38;8.07;;;4.40;;
9007;SDS011;62813;51.424;6.762;2022-08-30T05:46:06;11.83;;;4.50;;
9007;SDS011;62813;51.424;6.762;2022-08-30T05:48:36;6.80;;;4.50;;
9007;SDS011;62813;51.424;6.762;2022-08-30T05:51:04;7.37;;;4.00;;
9007;SDS011;62813;51.424;6.762;2022-08-30T05:53:31;6.87;;;3.87;;
9007;SDS011;62813;51.424;6.762;2022-08-30T05:55:59;7.43;;;4.40;;
9007;SDS011;62813;51.424;6.762;2022-08-30T05:58:30;5.37;;;3.97;;
9007;SDS011;62813;51.424;6.762;2022-08-30T06:00:57;6.50;;;4.60;;
9007;SDS011;62813;51.424;6.762;2022-08-30T06:03:24;7.47;;;4.30;;
9007;SDS011;62813;51.424;6.762;2022-08-30T06:05:52;8.40;;;4.70;;
9007;SDS011;62813;51.424;6.762;2022-08-30T06:08:19;7.87;;;4.43;;
9007;SDS011;62813;51.424;6.762;2022-08-30T06:10:46;13.30;;;4.80;;
9007;SDS011;62813;51.424;6.762;2022-08-30T06:13:13;7.97;;;4.90;;
9007;SDS011;62813;51.424;6.762;2022-08-30T06:15:40;7.13;;;4.70;;
9007;SDS011;62813;51.424;6.762;2022-08-30T06:18:11;5.87;;;4.57;;
9007;SDS011;62813;51.424;6.762;2022-08-30T06:20:39;6.43;;;5.00;;
9007;SDS011;62813;51.424;6.762;2022-08-30T06:23:15;7.57;;;4.47;;
9007;SDS011;62813;51.424;6.762;2022-08-30T06:25:45;8.17;;;5.07;;
9007;SDS011;62813;51.424;6.762;2022-08-30T06:28:11;6.67;;;5.37;;
9007;SDS011;62813;51.424;6.762;2022-08-30T06:30:39;7.60;;;4.80;;
9007;SDS011;62813;51.424;6.762;2022-08-30T06:33:07;6.70;;;5.07;;
9007;SDS011;62813;51.424;6.762;2022-08-30T06:35:34;8.70;;;5.17;;
9007;SDS011;62813;51.424;6.762;2022-08-30T06:38:17;7.17;;;4.83;;
9007;SDS011;62813;51.424;6.762;2022-08-30T06:40:44;6.40;;;4.97;;
9007;SDS011;62813;51.424;6.762;2022-08-30T06:43:10;8.80;;;5.47;;
9007;SDS011;62813;51.424;6.762;2022-08-30T06:45:37;6.53;;;4.70;;
9007;SDS011;62813;51.424;6.762;2022-08-30T06:48:04;6.93;;;5.40;;
9007;SDS011;62813;51.424;6.762;2022-08-30T06:50:30;8.33;;;5.37;;
9007;SDS011;62813;51.424;6.762;2022-08-30T06:52:57;7.33;;;5.03;;
9007;SDS011;62813;51.424;6.762;2022-08-30T06:55:30;7.87;;;5.13;;
9007;SDS011;62813;51.424;6.762;2022-08-30T06:58:00;10.17;;;5.10;;
9007;SDS011;62813;51.424;6.762;2022-08-30T07:00:27;8.67;;;5.20;;
9007;SDS011;62813;51.424;6.762;2022-08-30T07:02:55;9.83;;;6.33;;
9007;SDS011;62813;51.424;6.762;2022-08-30T07:05:22;5.97;;;4.80;;
9007;SDS011;62813;51.424;6.762;2022-08-30T07:07:49;10.60;;;6.00;;
9007;SDS011;62813;51.424;6.762;2022-08-30T07:10:19;7.97;;;5.67;;
9007;SDS011;62813;51.424;6.762;2022-08-30T07:12:46;12.83;;;5.97;;
9007;SDS011;62813;51.424;6.762;2022-08-30T07:15:13;5.77;;;5.27;;
9007;SDS011;62813;51.424;6.762;2022-08-30T07:17:40;6.77;;;5.30;;
9007;SDS011;62813;51.424;6.762;2022-08-30T07:20:25;9.33;;;5.30;;
9007;SDS011;62813;51.424;6.762;2022-08-30T07:22:54;6.30;;;5.47;;
9007;SDS011;62813;51.424;6.762;2022-08-30T07:25:20;7.40;;;5.10;;
9007;SDS011;62813;51.424;6.762;2022-08-30T07:27:47;8.90;;;5.27;;
9007;SDS011;62813;51.424;6.762;2022-08-30T07:30:17;7.83;;;5.33;;
9007;SDS011;62813;51.424;6.762;2022-08-30T07:32:44;6.73;;;5.10;;
9007;SDS011;62813;51.424;6.762;2022-08-30T07:35:10;12.70;;;6.07;;
9007;SDS011;62813;51.424;6.762;2022-08-30T07:37:37;10.13;;;5.30;;
9007;SDS011;62813;51.424;6.762;2022-08-30T07:40:04;8.23;;;4.90;;
9007;SDS011;62813;51.424;6.762;2022-08-30T07:42:32;7.77;;;5.13;;
9007;SDS011;62813;51.424;6.762;2022-08-30T07:44:58;6.70;;;4.60;;
9007;SDS011;62813;51.424;6.762;2022-08-30T07:47:25;7.03;;;4.63;;
9007;SDS011;62813;51.424;6.762;2022-08-30T07:49:52;7.80;;;4.97;;
9007;SDS011;62813;51.424;6.762;2022-08-30T07:52:18;9.83;;;4.90;;
9007;SDS011;62813;51.424;6.762;2022-08-30T07:54:45;6.93;;;4.73;;
9007;SDS011;62813;51.424;6.762;2022-08-30T07:57:18;7.87;;;4.43;;
9007;SDS011;62813;51.424;6.762;2022-08-30T07:59:44;6.23;;;5.03;;
9007;SDS011;62813;51.424;6.762;2022-08-30T08:02:11;7.23;;;4.50;;
9007;SDS011;62813;51.424;6.762;2022-08-30T08:04:38;7.23;;;4.70;;
9007;SDS011;62813;51.424;6.762;2022-08-30T08:07:04;5.57;;;4.83;;
9007;SDS011;62813;51.424;6.762;2022-08-30T08:09:31;7.70;;;4.60;;
9007;SDS011;62813;51.424;6.762;2022-08-30T08:11:59;7.90;;;4.50;;
9007;SDS011;62813;51.424;6.762;2022-08-30T08:14:25;5.57;;;4.30;;
9007;SDS011;62813;51.424;6.762;2022-08-30T08:16:53;9.80;;;4.90;;
9007;SDS011;62813;51.424;6.762;2022-08-30T08:19:20;9.30;;;5.03;;
9007;SDS011;62813;51.424;6.762;2022-08-30T08:21:47;9.23;;;4.87;;
9007;SDS011;62813;51.424;6.762;2022-08-30T08:24:25;7.93;;;5.00;;
9007;SDS011;62813;51.424;6.762;2022-08-30T08:26:53;6.20;;;5.03;;
9007;SDS011;62813;51.424;6.762;2022-08-30T08:29:20;9.47;;;5.17;;
9007;SDS011;62813;51.424;6.762;2022-08-30T08:31:48;9.47;;;4.70;;
9007;SDS011;62813;51.424;6.762;2022-08-30T08:34:15;9.40;;;5.03;;
9007;SDS011;62813;51.424;6.762;2022-08-30T08:36:44;9.30;;;4.83;;
9007;SDS011;62813;51.424;6.762;2022-08-30T08:39:10;10.00;;;4.50;;
9007;SDS011;62813;51.424;6.762;2022-08-30T08:49:56;8.50;;;4.10;;
9007;SDS011;62813;51.424;6.762;2022-08-30T08:52:28;9.03;;;4.17;;
9007;SDS011;62813;51.424;6.762;2022-08-30T08:55:20;5.20;;;3.90;;
9007;SDS011;62813;51.424;6.762;2022-08-30T08:57:49;12.77;;;4.23;;
9007;SDS011;62813;51.424;6.762;2022-08-30T09:00:17;6.03;;;3.63;;
9007;SDS011;62813;51.424;6.762;2022-08-30T09:02:46;12.10;;;3.93;;
9007;SDS011;62813;51.424;6.762;2022-08-30T09:05:21;8.70;;;4.17;;
9007;SDS011;62813;51.424;6.762;2022-08-30T09:07:53;4.03;;;3.40;;
9007;SDS011;62813;51.424;6.762;2022-08-30T09:10:26;8.17;;;3.53;;
9007;SDS011;62813;51.424;6.762;2022-08-30T09:13:15;7.17;;;3.63;;
9007;SDS011;62813;51.424;6.762;2022-08-30T09:15:44;6.60;;;3.80;;
9007;SDS011;62813;51.424;6.762;2022-08-30T09:18:14;4.10;;;3.17;;
9007;SDS011;62813;51.424;6.762;2022-08-30T09:21:04;4.93;;;3.93;;
9007;SDS011;62813;51.424;6.762;2022-08-30T09:23:32;9.83;;;3.37;;
9007;SDS011;62813;51.424;6.762;2022-08-30T09:26:00;5.87;;;3.53;;
9007;SDS011;62813;51.424;6.762;2022-08-30T09:28:31;7.53;;;3.60;;
9007;SDS011;62813;51.424;6.762;2022-08-30T09:31:27;9.33;;;3.33;;
9007;SDS011;62813;51.424;6.762;2022-08-30T09:33:55;4.80;;;3.23;;
9007;SDS011;62813;51.424;6.762;2022-08-30T09:36:31;7.00;;;3.20;;
9007;SDS011;62813;51.424;6.762;2022-08-30T09:39:06;6.63;;;3.27;;
9007;SDS011;62813;51.424;6.762;2022-08-30T09:41:43;7.30;;;2.77;;
9007;SDS011;62813;51.424;6.762;2022-08-30T09:44:15;7.20;;;2.63;;
9007;SDS011;62813;51.424;6.762;2022-08-30T09:46:43;4.73;;;2.83;;
9007;SDS011;62813;51.424;6.762;2022-08-30T10:00:34;4.57;;;2.80;;
9007;SDS011;62813;51.424;6.762;2022-08-30T10:03:13;9.03;;;3.50;;
9007;SDS011;62813;51.424;6.762;2022-08-30T10:06:03;5.47;;;2.83;;
9007;SDS011;62813;51.424;6.762;2022-08-30T10:11:30;10.17;;;3.17;;
9007;SDS011;62813;51.424;6.762;2022-08-30T10:17:25;3.47;;;2.60;;
9007;SDS011;62813;51.424;6.762;2022-08-30T10:23:09;5.83;;;2.87;;
9007;SDS011;62813;51.424;6.762;2022-08-30T10:25:40;6.53;;;2.40;;
9007;SDS011;62813;51.424;6.762;2022-08-30T10:28:25;7.17;;;2.60;;
9007;SDS011;62813;51.424;6.762;2022-08-30T10:31:02;4.20;;;2.50;;
9007;SDS011;62813;51.424;6.762;2022-08-30T10:33:43;8.27;;;2.50;;
9007;SDS011;62813;51.424;6.762;2022-08-30T10:36:13;4.70;;;2.40;;
9007;SDS011;62813;51.424;6.762;2022-08-30T10:38:44;4.03;;;2.50;;
9007;SDS011;62813;51.424;6.762;2022-08-30T10:41:23;3.17;;;2.30;;
9007;SDS011;62813;51.424;6.762;2022-08-30T10:44:02;6.50;;;2.73;;
9007;SDS011;62813;51.424;6.762;2022-08-30T10:49:48;7.87;;;2.40;;
9007;SDS011;62813;51.424;6.762;2022-08-30T10:52:22;4.80;;;2.30;;
9007;SDS011;62813;51.424;6.762;2022-08-30T10:54:58;3.57;;;2.20;;
9007;SDS011;62813;51.424;6.762;2022-08-30T10:57:25;4.13;;;2.00;;
9007;SDS011;62813;51.424;6.762;2022-08-30T11:00:14;5.07;;;2.27;;
9007;SDS011;62813;51.424;6.762;2022-08-30T11:14:08;3.57;;;2.10;;
9007;SDS011;62813;51.424;6.762;2022-08-30T11:16:44;6.13;;;2.20;;
9007;SDS011;62813;51.424;6.762;2022-08-30T11:21:46;10.63;;;2.30;;
9007;SDS011;62813;51.424;6.762;2022-08-30T11:26:54;6.97;;;2.07;;
9007;SDS011;62813;51.424;6.762;2022-08-30T11:31:53;4.57;;;2.00;;
9007;SDS011;62813;51.424;6.762;2022-08-30T11:42:43;7.00;;;1.90;;
9007;SDS011;62813;51.424;6.762;2022-08-30T11:47:54;5.90;;;2.10;;
9007;SDS011;62813;51.424;6.762;2022-08-30T11:51:06;5.80;;;2.27;;
9007;SDS011;62813;51.424;6.762;2022-08-30T11:56:32;6.10;;;2.30;;
9007;SDS011;62813;51.424;6.762;2022-08-30T11:59:18;4.03;;;2.30;;
9007;SDS011;62813;51.424;6.762;2022-08-30T12:01:58;7.83;;;2.50;;
9007;SDS011;62813;51.424;6.762;2022-08-30T12:04:33;6.70;;;2.20;;
9007;SDS011;62813;51.424;6.762;2022-08-30T12:07:07;4.37;;;2.47;;
9007;SDS011;62813;51.424;6.762;2022-08-30T12:12:05;6.00;;;2.00;;
9007;SDS011;62813;51.424;6.762;2022-08-30T12:14:46;6.10;;;2.27;;
9007;SDS011;62813;51.424;6.762;2022-08-30T12:20:45;3.93;;;2.20;;
9007;SDS011;62813;51.424;6.762;2022-08-30T12:23:19;3.63;;;1.97;;
9007;SDS011;62813;51.424;6.762;2022-08-30T12:28:38;3.50;;;2.50;;
9007;SDS011;62813;51.424;6.762;2022-08-30T12:31:25;7.53;;;2.30;;
9007;SDS011;62813;51.424;6.762;2022-08-30T12:33:55;5.43;;;2.60;;
9007;SDS011;62813;51.424;6.762;2022-08-30T12:36:30;6.43;;;2.80;;
9007;SDS011;62813;51.424;6.762;2022-08-30T12:39:09;6.40;;;2.50;;
9007;SDS011;62813;51.424;6.762;2022-08-30T12:41:42;6.50;;;3.00;;
9007;SDS011;62813;51.424;6.762;2022-08-30T12:44:20;8.37;;;2.50;;
9007;SDS011;62813;51.424;6.762;2022-08-30T12:46:51;6.13;;;2.80;;
9007;SDS011;62813;51.424;6.762;2022-08-30T12:49:26;5.17;;;2.47;;
9007;SDS011;62813;51.424;6.762;2022-08-30T12:51:55;4.10;;;2.70;;
9007;SDS011;62813;51.424;6.762;2022-08-30T12:54:41;2.93;;;2.63;;
9007;SDS011;62813;51.424;6.762;2022-08-30T12:57:09;5.20;;;2.87;;
9007;SDS011;62813;51.424;6.762;2022-08-30T12:59:57;3.90;;;2.80;;
9007;SDS011;62813;51.424;6.762;2022-08-30T13:02:36;6.63;;;2.80;;
9007;SDS011;62813;51.424;6.762;2022-08-30T13:08:07;4.07;;;2.40;;
9007;SDS011;62813;51.424;6.762;2022-08-30T13:13:43;4.67;;;2.57;;
9007;SDS011;62813;51.424;6.762;2022-08-30T13:18:46;7.60;;;2.57;;
9007;SDS011;62813;51.424;6.762;2022-08-30T13:21:28;11.10;;;2.80;;
9007;SDS011;62813;51.424;6.762;2022-08-30T13:26:32;4.17;;;2.40;;
9007;SDS011;62813;51.424;6.762;2022-08-30T13:29:03;3.90;;;2.60;;
9007;SDS011;62813;51.424;6.762;2022-08-30T13:31:35;2.93;;;2.60;;
9007;SDS011;62813;51.424;6.762;2022-08-30T13:34:02;4.60;;;3.10;;
9007;SDS011;62813;51.424;6.762;2022-08-30T13:36:31;7.30;;;2.80;;
9007;SDS011;62813;51.424;6.762;2022-08-30T13:39:01;4.37;;;3.10;;
9007;SDS011;62813;51.424;6.762;2022-08-30T13:41:29;7.00;;;3.10;;
9007;SDS011;62813;51.424;6.762;2022-08-30T13:43:59;6.23;;;2.67;;
9007;SDS011;62813;51.424;6.762;2022-08-30T13:46:39;3.40;;;2.57;;
9007;SDS011;62813;51.424;6.762;2022-08-30T13:49:10;3.10;;;2.30;;
9007;SDS011;62813;51.424;6.762;2022-08-30T13:52:04;3.40;;;2.67;;
9007;SDS011;62813;51.424;6.762;2022-08-30T13:54:50;3.23;;;2.40;;
9007;SDS011;62813;51.424;6.762;2022-08-30T13:57:19;4.60;;;2.70;;
9007;SDS011;62813;51.424;6.762;2022-08-30T14:00:10;2.63;;;2.43;;
9007;SDS011;62813;51.424;6.762;2022-08-30T14:02:40;4.93;;;2.50;;
9007;SDS011;62813;51.424;6.762;2022-08-30T14:05:12;5.13;;;2.53;;
9007;SDS011;62813;51.424;6.762;2022-08-30T14:08:00;4.10;;;2.37;;
9007;SDS011;62813;51.424;6.762;2022-08-30T14:10:27;5.30;;;2.73;;
9007;SDS011;62813;51.424;6.762;2022-08-30T14:12:57;5.97;;;2.70;;
9007;SDS011;62813;51.424;6.762;2022-08-30T14:15:33;9.07;;;2.30;;
9007;SDS011;62813;51.424;6.762;2022-08-30T14:18:04;4.60;;;2.50;;
9007;SDS011;62813;51.424;6.762;2022-08-30T14:20:32;4.57;;;3.00;;
9007;SDS011;62813;51.424;6.762;2022-08-30T14:23:05;6.73;;;2.53;;
9007;SDS011;62813;51.424;6.762;2022-08-30T14:25:35;4.87;;;2.63;;
9007;SDS011;62813;51.424;6.762;2022-08-30T14:28:02;3.73;;;2.40;;
9007;SDS011;62813;51.424;6.762;2022-08-30T14:30:29;5.77;;;2.60;;
9007;SDS011;62813;51.424;6.762;2022-08-30T14:32:58;3.53;;;2.60;;
9007;SDS011;62813;51.424;6.762;2022-08-30T14:35:25;3.80;;;2.87;;
9007;SDS011;62813;51.424;6.762;2022-08-30T14:37:52;3.23;;;2.50;;
9007;SDS011;62813;51.424;6.762;2022-08-30T14:40:19;4.33;;;2.60;;
9007;SDS011;62813;51.424;6.762;2022-08-30T14:42:46;6.00;;;2.87;;
9007;SDS011;62813;51.424;6.762;2022-08-30T14:45:13;4.03;;;2.47;;
9007;SDS011;62813;51.424;6.762;2022-08-30T14:47:39;3.13;;;2.33;;
9007;SDS011;62813;51.424;6.762;2022-08-30T14:50:06;3.87;;;2.13;;
9007;SDS011;62813;51.424;6.762;2022-08-30T14:52:33;5.20;;;2.80;;
9007;SDS011;62813;51.424;6.762;2022-08-30T14:55:01;4.40;;;2.83;;
9007;SDS011;62813;51.424;6.762;2022-08-30T14:57:34;4.80;;;3.47;;
9007;SDS011;62813;51.424;6.762;2022-08-30T15:00:04;6.40;;;2.40;;
9007;SDS011;62813;51.424;6.762;2022-08-30T15:02:32;6.37;;;2.80;;
9007;SDS011;62813;51.424;6.762;2022-08-30T15:05:00;4.67;;;2.30;;
9007;SDS011;62813;51.424;6.762;2022-08-30T15:07:26;3.30;;;2.70;;
9007;SDS011;62813;51.424;6.762;2022-08-30T15:09:53;4.17;;;2.63;;
9007;SDS011;62813;51.424;6.762;2022-08-30T15:12:20;7.17;;;2.70;;
9007;SDS011;62813;51.424;6.762;2022-08-30T15:14:46;5.93;;;2.60;;
9007;SDS011;62813;51.424;6.762;2022-08-30T15:17:13;8.40;;;2.80;;
9007;SDS011;62813;51.424;6.762;2022-08-30T15:19:43;2.73;;;2.13;;
9007;SDS011;62813;51.424;6.762;2022-08-30T15:22:09;5.70;;;2.53;;
9007;SDS011;62813;51.424;6.762;2022-08-30T15:24:36;8.87;;;2.83;;
9007;SDS011;62813;51.424;6.762;2022-08-30T15:27:03;3.30;;;2.23;;
9007;SDS011;62813;51.424;6.762;2022-08-30T15:29:31;4.00;;;2.47;;
9007;SDS011;62813;51.424;6.762;2022-08-30T15:31:58;8.03;;;2.63;;
9007;SDS011;62813;51.424;6.762;2022-08-30T15:34:27;4.37;;;2.13;;
9007;SDS011;62813;51.424;6.762;2022-08-30T15:36:54;5.53;;;2.53;;
9007;SDS011;62813;51.424;6.762;2022-08-30T15:39:21;3.40;;;2.20;;
9007;SDS011;62813;51.424;6.762;2022-08-30T15:41:50;7.47;;;2.40;;
9007;SDS011;62813;51.424;6.762;2022-08-30T15:44:22;2.70;;;2.10;;
9007;SDS011;62813;51.424;6.762;2022-08-30T15:46:49;3.23;;;2.50;;
9007;SDS011;62813;51.424;6.762;2022-08-30T15:49:16;2.47;;;2.17;;
9007;SDS011;62813;51.424;6.762;2022-08-30T15:51:49;4.73;;;2.37;;
9007;SDS011;62813;51.424;6.762;2022-08-30T15:54:20;4.33;;;2.40;;
9007;SDS011;62813;51.424;6.762;2022-08-30T15:56:48;4.83;;;2.33;;
9007;SDS011;62813;51.424;6.762;2022-08-30T15:59:15;3.07;;;2.50;;
9007;SDS011;62813;51.424;6.762;2022-08-30T16:01:43;4.73;;;2.50;;
9007;SDS011;62813;51.424;6.762;2022-08-30T16:04:12;4.80;;;2.30;;
9007;SDS011;62813;51.424;6.762;2022-08-30T16:06:39;2.90;;;2.30;;
9007;SDS011;62813;51.424;6.762;2022-08-30T16:09:07;3.27;;;2.10;;
9007;SDS011;62813;51.424;6.762;2022-08-30T16:11:35;2.93;;;2.10;;
9007;SDS011;62813;51.424;6.762;2022-08-30T16:14:02;4.70;;;2.13;;
9007;SDS011;62813;51.424;6.762;2022-08-30T16:16:31;5.90;;;2.50;;
9007;SDS011;62813;51.424;6.762;2022-08-30T16:18:58;8.00;;;2.70;;
9007;SDS011;62813;51.424;6.762;2022-08-30T16:21:28;3.53;;;2.10;;
9007;SDS011;62813;51.424;6.762;2022-08-30T16:23:58;7.47;;;2.67;;
9007;SDS011;62813;51.424;6.762;2022-08-30T16:26:27;4.40;;;2.20;;
9007;SDS011;62813;51.424;6.762;2022-08-30T16:28:55;3.93;;;2.30;;
9007;SDS011;62813;51.424;6.762;2022-08-30T16:31:24;3.80;;;2.30;;
9007;SDS011;62813;51.424;6.762;2022-08-30T16:33:53;3.33;;;1.83;;
9007;SDS011;62813;51.424;6.762;2022-08-30T16:36:22;3.37;;;2.30;;
9007;SDS011;62813;51.424;6.762;2022-08-30T16:38:53;2.47;;;2.00;;
9007;SDS011;62813;51.424;6.762;2022-08-30T16:41:23;3.83;;;1.90;;
9007;SDS011;62813;51.424;6.762;2022-08-30T16:43:50;6.97;;;2.03;;
9007;SDS011;62813;51.424;6.762;2022-08-30T16:46:19;2.93;;;2.20;;